Time;durP1;ratioP1;P1;durP2;ratioP2;P2;SDS_P1;SDS_P2;PMS_P1;PMS_P2;Temp;Humidity;BMP_temperature;BMP_pressure;BME280_temperature;BME280_humidity;BME280_pressure;Samples;Min_cycle;Max_cycle;Signal;HPM_P1;HPM_P2
2021/12/03 00:00:30;;;;;;;0.35;0.35;;;0.20;99.90;;;;;;5071285;28;20075;-80
2021/12/03 00:02:56;;;;;;;0.40;0.40;;;0.20;99.90;;;;;;5072534;28;20048;-80
2021/12/03 00:05:22;;;;;;;0.95;0.95;;;0.20;99.90;;;;;;5071541;28;20056;-81
2021/12/03 00:07:48;;;;;;;3.83;0.55;;;0.20;99.90;;;;;;5072601;28;20123;-80
2021/12/03 00:10:15;;;;;;;0.20;0.20;;;0.20;99.90;;;;;;5072834;28;20044;-81
2021/12/03 00:12:42;;;;;;;0.30;0.30;;;0.20;99.90;;;;;;5071825;28;20049;-81
2021/12/03 00:15:10;;;;;;;0.35;0.35;;;0.10;99.90;;;;;;5073040;28;20123;-80
2021/12/03 00:17:36;;;;;;;0.63;0.63;;;0.10;99.90;;;;;;5072807;28;20472;-80
2021/12/03 00:20:04;;;;;;;0.30;0.30;;;0.10;99.90;;;;;;5073033;28;20054;-81
2021/12/03 00:22:30;;;;;;;1.40;0.80;;;0.00;99.90;;;;;;5054785;28;20119;-80
2021/12/03 00:24:56;;;;;;;0.25;0.25;;;0.00;99.90;;;;;;5071699;28;20128;-81
2021/12/03 00:27:21;;;;;;;0.50;0.50;;;0.00;99.90;;;;;;5071558;28;20036;-81
2021/12/03 00:29:47;;;;;;;0.30;0.30;;;0.00;99.90;;;;;;5071326;28;20143;-84
2021/12/03 00:32:13;;;;;;;0.50;0.50;;;0.00;99.90;;;;;;5053942;28;20044;-83
2021/12/03 00:34:38;;;;;;;0.40;0.30;;;0.00;99.90;;;;;;5071687;28;20045;-84
2021/12/03 00:37:04;;;;;;;2.08;1.17;;;0.00;99.90;;;;;;5054502;28;20041;-84
2021/12/03 00:39:30;;;;;;;0.40;0.40;;;0.00;99.90;;;;;;5071155;28;20527;-84
2021/12/03 00:41:59;;;;;;;3.83;0.73;;;0.00;99.90;;;;;;5071223;28;20036;-84
2021/12/03 00:44:26;;;;;;;0.73;0.73;;;0.00;99.90;;;;;;5071067;28;20049;-85
2021/12/03 00:46:52;;;;;;;0.65;0.65;;;0.10;99.90;;;;;;5074238;28;20469;-85
2021/12/03 00:49:18;;;;;;;0.40;0.40;;;0.10;99.90;;;;;;5076472;28;20458;-83
2021/12/03 00:51:44;;;;;;;0.55;0.55;;;0.10;99.90;;;;;;5075301;28;20080;-84
2021/12/03 00:54:10;;;;;;;0.20;0.20;;;0.10;99.90;;;;;;5075088;28;20131;-85
2021/12/03 00:56:36;;;;;;;0.40;0.40;;;0.10;99.90;;;;;;5058184;28;20083;-84
2021/12/03 00:59:02;;;;;;;0.30;0.30;;;0.10;99.90;;;;;;5076493;28;20072;-84
2021/12/03 01:01:28;;;;;;;0.40;0.40;;;0.10;99.90;;;;;;5074730;28;20040;-85
2021/12/03 01:03:53;;;;;;;2.45;2.35;;;0.00;99.90;;;;;;5058218;28;20571;-86
2021/12/03 01:06:19;;;;;;;0.95;0.95;;;0.00;99.90;;;;;;5076378;28;20072;-85
2021/12/03 01:08:45;;;;;;;0.95;0.95;;;0.00;99.90;;;;;;5074729;28;20504;-84
2021/12/03 01:11:12;;;;;;;0.40;0.40;;;0.00;99.90;;;;;;5075048;28;20040;-86
2021/12/03 01:13:40;;;;;;;0.43;0.43;;;0.00;99.90;;;;;;5075109;28;20052;-84
2021/12/03 01:16:07;;;;;;;0.32;0.32;;;0.10;99.90;;;;;;5074815;28;20040;-84
2021/12/03 01:18:33;;;;;;;1.77;1.52;;;0.10;99.90;;;;;;5057769;28;20075;-84
2021/12/03 01:21:01;;;;;;;1.00;1.00;;;0.10;99.90;;;;;;5076060;28;20047;-84
2021/12/03 01:23:26;;;;;;;0.38;0.38;;;0.20;99.90;;;;;;5074475;28;20566;-83
2021/12/03 01:25:52;;;;;;;1.75;0.75;;;0.20;99.90;;;;;;5057867;28;20049;-84
2021/12/03 01:28:18;;;;;;;4.47;1.58;;;0.20;99.90;;;;;;5074303;28;20390;-84
2021/12/03 01:30:44;;;;;;;0.45;0.45;;;0.20;99.90;;;;;;5074386;28;20052;-85
2021/12/03 01:33:10;;;;;;;0.30;0.30;;;0.20;99.90;;;;;;5074543;28;20083;-84
2021/12/03 01:35:37;;;;;;;0.50;0.50;;;0.30;99.90;;;;;;5074462;28;20044;-85
2021/12/03 01:38:05;;;;;;;1.10;1.02;;;0.30;99.90;;;;;;5075550;28;20485;-84
2021/12/03 01:40:35;;;;;;;1.38;1.35;;;0.30;99.90;;;;;;5075196;28;20040;-85
2021/12/03 01:43:04;;;;;;;2.65;2.47;;;0.20;99.90;;;;;;5075857;28;20111;-86
2021/12/03 01:45:33;;;;;;;0.73;0.73;;;0.20;99.90;;;;;;5074442;28;20032;-86
2021/12/03 01:48:00;;;;;;;4.85;4.43;;;0.20;99.90;;;;;;5075702;28;20053;-84
2021/12/03 01:50:31;;;;;;;1.40;1.30;;;0.20;99.90;;;;;;5075129;28;20089;-84
2021/12/03 01:52:57;;;;;;;2.85;1.00;;;0.20;99.90;;;;;;5073960;28;20080;-85
2021/12/03 01:55:23;;;;;;;20.42;2.15;;;0.30;99.90;;;;;;5073830;28;20040;-84
2021/12/03 01:57:49;;;;;;;0.95;0.70;;;0.30;99.90;;;;;;5072866;28;20041;-85
2021/12/03 02:00:26;;;;;;;0.50;0.50;;;0.30;99.90;;;;;;5073332;28;20044;-83
2021/12/03 02:02:52;;;;;;;0.50;0.50;;;0.30;99.90;;;;;;5073729;28;20056;-84
2021/12/03 02:05:19;;;;;;;1.65;0.80;;;0.30;99.90;;;;;;5075023;28;20528;-84
2021/12/03 02:07:45;;;;;;;2.88;2.22;;;0.30;99.90;;;;;;5074000;28;20044;-84
2021/12/03 02:10:11;;;;;;;1.00;1.00;;;0.30;99.90;;;;;;5073623;28;20133;-84
2021/12/03 02:12:37;;;;;;;3.20;2.00;;;0.30;99.90;;;;;;5073635;28;20040;-84
2021/12/03 02:15:04;;;;;;;1.65;1.25;;;0.30;99.90;;;;;;5056922;28;20056;-85
2021/12/03 02:17:30;;;;;;;0.73;0.73;;;0.30;99.90;;;;;;5073314;28;20048;-84
2021/12/03 02:19:56;;;;;;;1.08;1.08;;;0.30;99.90;;;;;;5073663;28;20051;-85
2021/12/03 02:22:22;;;;;;;1.42;1.30;;;0.30;99.90;;;;;;5073484;28;20044;-85
2021/12/03 02:24:47;;;;;;;1.08;1.08;;;0.50;99.90;;;;;;5073327;28;20045;-85
2021/12/03 02:27:13;;;;;;;1.15;1.15;;;0.40;99.90;;;;;;5073543;28;20071;-85
2021/12/03 02:29:39;;;;;;;0.45;0.45;;;0.50;99.90;;;;;;5073628;28;20097;-84
2021/12/03 02:32:05;;;;;;;1.60;1.50;;;0.40;99.90;;;;;;5073225;28;20059;-85
2021/12/03 02:34:31;;;;;;;1.63;1.63;;;0.50;99.90;;;;;;5056263;28;20127;-85
2021/12/03 02:36:57;;;;;;;2.38;1.90;;;0.50;99.90;;;;;;5074363;28;20139;-86
2021/12/03 02:39:23;;;;;;;4.78;4.45;;;0.50;99.90;;;;;;5073140;28;20052;-85
2021/12/03 02:41:48;;;;;;;2.25;2.05;;;0.60;99.90;;;;;;5073250;28;20063;-86
2021/12/03 02:44:14;;;;;;;1.88;1.77;;;0.50;99.90;;;;;;5073198;28;20083;-85
2021/12/03 02:46:40;;;;;;;4.63;1.83;;;0.50;99.90;;;;;;5073024;28;20051;-85
2021/12/03 02:49:08;;;;;;;2.10;2.00;;;0.60;99.90;;;;;;5073075;28;20044;-85
2021/12/03 02:51:34;;;;;;;5.05;3.25;;;0.60;99.90;;;;;;5072838;28;20109;-85
2021/12/03 02:54:00;;;;;;;1.38;1.27;;;0.60;99.90;;;;;;5056223;28;20049;-85
2021/12/03 02:56:27;;;;;;;3.13;2.85;;;0.60;99.90;;;;;;5072977;28;20040;-85
2021/12/03 02:58:52;;;;;;;1.65;1.60;;;0.70;99.90;;;;;;5056284;28;20051;-86
2021/12/03 03:01:18;;;;;;;1.80;1.73;;;0.60;99.90;;;;;;5073514;28;20049;-85
2021/12/03 03:03:44;;;;;;;0.88;0.88;;;0.60;99.90;;;;;;5072635;28;20139;-85
2021/12/03 03:06:10;;;;;;;3.70;2.63;;;0.50;99.90;;;;;;5072921;28;20048;-85
2021/12/03 03:08:39;;;;;;;2.72;2.50;;;0.50;99.90;;;;;;5072528;28;20075;-86
2021/12/03 03:11:06;;;;;;;1.40;1.40;;;0.50;99.90;;;;;;5056016;28;20089;-86
2021/12/03 03:13:33;;;;;;;2.45;1.77;;;0.50;99.90;;;;;;5072489;28;20047;-87
2021/12/03 03:15:59;;;;;;;3.65;2.30;;;0.50;99.90;;;;;;5073169;28;20059;-86
2021/12/03 03:18:27;;;;;;;3.00;2.70;;;0.50;99.90;;;;;;5073954;28;20040;-83
2021/12/03 03:20:55;;;;;;;1.73;1.58;;;0.50;99.90;;;;;;5072248;28;20044;-84
2021/12/03 03:23:21;;;;;;;6.95;2.53;;;0.40;99.90;;;;;;5073780;28;20389;-87
2021/12/03 03:25:48;;;;;;;1.08;0.73;;;0.40;99.90;;;;;;5072082;28;20041;-83
2021/12/03 03:28:14;;;;;;;1.60;1.58;;;0.50;99.90;;;;;;5072449;28;20048;-83
2021/12/03 03:30:42;;;;;;;3.08;2.95;;;0.40;99.90;;;;;;5072273;28;20052;-84
2021/12/03 03:33:09;;;;;;;1.25;1.25;;;0.40;99.90;;;;;;5072122;28;20381;-84
2021/12/03 03:35:35;;;;;;;1.83;1.73;;;0.40;99.90;;;;;;5055206;28;20094;-84
2021/12/03 03:38:02;;;;;;;2.33;2.22;;;0.40;99.90;;;;;;5072022;28;20433;-84
2021/12/03 03:40:29;;;;;;;1.73;1.67;;;0.40;99.90;;;;;;5073265;28;20076;-85
2021/12/03 03:42:56;;;;;;;0.93;0.93;;;0.40;99.90;;;;;;5055273;28;20036;-85
2021/12/03 03:45:23;;;;;;;9.05;8.38;;;0.30;99.90;;;;;;5072040;28;20051;-86
2021/12/03 03:47:49;;;;;;;1.70;1.45;;;0.30;99.90;;;;;;5072041;28;20044;-84
2021/12/03 03:50:17;;;;;;;2.75;2.60;;;0.30;99.90;;;;;;5055097;28;20048;-84
2021/12/03 03:52:44;;;;;;;2.88;2.67;;;0.30;99.90;;;;;;5072064;28;20440;-84
2021/12/03 03:55:11;;;;;;;1.52;1.30;;;0.20;99.90;;;;;;5072019;28;20070;-85
2021/12/03 03:57:38;;;;;;;1.52;0.82;;;0.20;99.90;;;;;;5071744;28;20133;-85
2021/12/03 04:00:08;;;;;;;6.85;1.73;;;0.20;99.90;;;;;;5071853;28;20505;-84
2021/12/03 04:02:33;;;;;;;4.03;3.72;;;0.20;99.90;;;;;;5073179;28;20131;-84
2021/12/03 04:04:59;;;;;;;1.17;1.15;;;0.20;99.90;;;;;;5071803;28;20488;-85
2021/12/03 04:07:25;;;;;;;4.47;2.25;;;0.20;99.90;;;;;;5073263;28;20102;-85
2021/12/03 04:09:50;;;;;;;2.22;2.05;;;0.20;99.90;;;;;;5071832;28;20449;-86
2021/12/03 04:12:16;;;;;;;2.35;2.08;;;0.10;99.90;;;;;;5072021;28;20405;-86
2021/12/03 04:14:42;;;;;;;1.15;1.15;;;0.10;99.90;;;;;;5072333;28;20500;-86
2021/12/03 04:17:08;;;;;;;1.10;1.10;;;0.10;99.90;;;;;;5071816;28;20128;-86
2021/12/03 04:19:35;;;;;;;0.88;0.88;;;0.10;99.90;;;;;;5071859;28;20543;-86
2021/12/03 04:22:01;;;;;;;3.35;2.20;;;0.00;99.90;;;;;;5071644;28;20056;-86
2021/12/03 04:24:27;;;;;;;1.35;1.35;;;0.00;99.90;;;;;;5071726;28;20036;-85
2021/12/03 04:26:53;;;;;;;1.73;0.80;;;0.00;99.90;;;;;;5071863;28;20400;-85
2021/12/03 04:29:19;;;;;;;1.30;1.30;;;0.00;99.90;;;;;;5072195;28;20040;-86
2021/12/03 04:31:44;;;;;;;2.05;1.95;;;0.00;99.90;;;;;;5072443;28;20489;-83
2021/12/03 04:34:10;;;;;;;0.57;0.57;;;0.10;99.90;;;;;;5072242;28;20120;-87
2021/12/03 04:36:36;;;;;;;2.47;2.35;;;0.00;99.90;;;;;;5071920;28;20052;-86
2021/12/03 04:39:02;;;;;;;0.98;0.98;;;0.00;99.90;;;;;;5071591;28;20048;-85
2021/12/03 04:41:28;;;;;;;0.88;0.88;;;0.00;99.90;;;;;;5071464;28;20048;-86
2021/12/03 04:43:54;;;;;;;5.32;2.42;;;0.00;99.90;;;;;;5071556;28;20377;-85
2021/12/03 04:46:21;;;;;;;6.50;2.55;;;-0.10;99.90;;;;;;5073028;28;20036;-86
2021/12/03 04:48:47;;;;;;;0.82;0.82;;;-0.10;99.90;;;;;;5071713;28;20047;-86
2021/12/03 04:51:13;;;;;;;0.50;0.50;;;-0.10;99.90;;;;;;5073146;28;20044;-85
2021/12/03 04:53:38;;;;;;;1.55;1.48;;;-0.10;99.90;;;;;;5071414;28;20303;-85
2021/12/03 04:56:04;;;;;;;4.07;1.90;;;-0.10;99.90;;;;;;5071708;28;20067;-86
2021/12/03 04:58:30;;;;;;;4.32;3.97;;;-0.10;99.90;;;;;;5071777;28;20401;-85
2021/12/03 05:00:57;;;;;;;0.95;0.95;;;-0.10;99.90;;;;;;5071374;28;20051;-85
2021/12/03 05:03:24;;;;;;;1.80;1.75;;;-0.10;99.90;;;;;;5072487;28;20052;-83
2021/12/03 05:05:56;;;;;;;2.10;2.00;;;-0.10;99.90;;;;;;5071361;28;20102;-86
2021/12/03 05:08:23;;;;;;;0.65;0.65;;;-0.10;99.90;;;;;;5071387;28;20055;-87
2021/12/03 05:10:49;;;;;;;1.73;1.63;;;-0.10;99.90;;;;;;5071540;28;20045;-84
2021/12/03 05:13:21;;;;;;;5.82;2.25;;;-0.10;99.90;;;;;;5071159;28;20051;-85
2021/12/03 05:15:47;;;;;;;1.80;1.70;;;-0.10;99.90;;;;;;5071363;28;20041;-85
2021/12/03 05:18:16;;;;;;;3.20;2.90;;;-0.10;99.90;;;;;;5071568;28;20504;-84
2021/12/03 05:20:43;;;;;;;1.80;1.70;;;-0.10;99.90;;;;;;5054492;28;20041;-85
2021/12/03 05:23:09;;;;;;;1.98;1.52;;;-0.10;99.90;;;;;;5071102;28;20045;-85
2021/12/03 05:25:36;;;;;;;1.05;1.05;;;-0.10;99.90;;;;;;5071429;28;20362;-85
2021/12/03 05:28:04;;;;;;;1.38;1.38;;;-0.10;99.90;;;;;;5071429;28;20109;-84
2021/12/03 05:30:30;;;;;;;2.00;1.88;;;-0.10;99.90;;;;;;5054732;28;20128;-85
2021/12/03 05:32:56;;;;;;;1.35;1.25;;;-0.10;99.90;;;;;;5055587;28;20066;-85
2021/12/03 05:35:22;;;;;;;1.55;1.48;;;-0.10;99.90;;;;;;5074554;28;20043;-86
2021/12/03 05:37:48;;;;;;;2.72;2.63;;;-0.10;99.90;;;;;;5074682;28;20494;-85
2021/12/03 05:40:15;;;;;;;0.95;0.75;;;-0.10;99.90;;;;;;5074743;28;20059;-85
2021/12/03 05:42:44;;;;;;;4.22;3.97;;;-0.10;99.90;;;;;;5074774;28;20558;-85
2021/12/03 05:45:12;;;;;;;1.52;0.93;;;-0.10;99.90;;;;;;5074675;28;20440;-85
2021/12/03 05:47:38;;;;;;;2.40;2.05;;;-0.10;99.90;;;;;;5074749;28;20131;-86
2021/12/03 05:50:06;;;;;;;15.73;2.90;;;-0.10;99.90;;;;;;5074416;28;20051;-85
2021/12/03 05:52:32;;;;;;;4.22;2.65;;;0.00;99.90;;;;;;5057590;28;20051;-85
2021/12/03 05:54:57;;;;;;;13.73;8.55;;;0.00;99.90;;;;;;5075778;28;20400;-85
2021/12/03 05:57:23;;;;;;;10.45;7.05;;;0.00;99.90;;;;;;5074260;28;20040;-84
2021/12/03 05:59:49;;;;;;;6.75;4.40;;;0.00;99.90;;;;;;5075171;28;20052;-84
2021/12/03 06:02:15;;;;;;;4.07;3.70;;;0.00;99.90;;;;;;5057490;28;20083;-83
2021/12/03 06:04:41;;;;;;;4.10;3.80;;;0.00;99.90;;;;;;5074179;28;20044;-84
2021/12/03 06:07:07;;;;;;;0.77;0.77;;;0.00;99.90;;;;;;5075277;28;20041;-84
2021/12/03 06:09:33;;;;;;;3.35;2.67;;;0.10;99.90;;;;;;5074041;28;20455;-85
2021/12/03 06:12:01;;;;;;;3.90;2.50;;;0.00;99.90;;;;;;5073735;28;20048;-84
2021/12/03 06:14:28;;;;;;;3.33;2.92;;;0.00;99.90;;;;;;5073635;28;20036;-85
2021/12/03 06:16:54;;;;;;;3.60;2.33;;;0.10;99.90;;;;;;5073923;28;20052;-85
2021/12/03 06:19:20;;;;;;;1.25;1.25;;;0.00;99.90;;;;;;5073740;28;20056;-84
2021/12/03 06:21:45;;;;;;;0.70;0.70;;;0.00;99.90;;;;;;5073625;28;20040;-84
2021/12/03 06:24:11;;;;;;;4.75;3.63;;;0.00;99.90;;;;;;5057553;28;20047;-84
2021/12/03 06:26:37;;;;;;;1.08;1.08;;;0.10;99.90;;;;;;5056962;28;20048;-84
2021/12/03 06:29:03;;;;;;;3.55;2.95;;;0.00;99.90;;;;;;5056705;28;20185;-84
2021/12/03 06:31:29;;;;;;;1.73;1.63;;;0.00;99.90;;;;;;5073451;28;20041;-84
2021/12/03 06:33:55;;;;;;;2.60;2.47;;;0.00;99.90;;;;;;5073584;28;20055;-84
2021/12/03 06:36:20;;;;;;;3.33;2.47;;;0.10;99.90;;;;;;5056490;28;20131;-84
2021/12/03 06:38:46;;;;;;;3.13;1.75;;;0.10;99.90;;;;;;5073149;28;20136;-84
2021/12/03 06:41:12;;;;;;;13.75;6.65;;;0.10;99.90;;;;;;5073518;28;20045;-83
2021/12/03 06:43:37;;;;;;;4.97;4.35;;;0.20;99.90;;;;;;5072674;28;20044;-84
2021/12/03 06:46:04;;;;;;;4.18;3.85;;;0.10;99.90;;;;;;5073046;28;20041;-85
2021/12/03 06:48:29;;;;;;;5.28;4.68;;;0.10;99.90;;;;;;5072985;28;20080;-84
2021/12/03 06:50:55;;;;;;;1.05;1.05;;;0.10;99.90;;;;;;5073064;28;20091;-84
2021/12/03 06:53:24;;;;;;;1.55;1.52;;;0.10;99.90;;;;;;5072808;28;20424;-83
2021/12/03 06:56:05;;;;;;;1.40;1.30;;;0.10;99.90;;;;;;5072983;28;20059;-82
2021/12/03 06:58:31;;;;;;;1.33;1.33;;;0.10;99.90;;;;;;5072713;28;20048;-83
2021/12/03 07:00:57;;;;;;;2.03;1.45;;;0.10;99.90;;;;;;5073025;28;20045;-85
2021/12/03 07:03:23;;;;;;;2.10;1.52;;;0.10;99.90;;;;;;5072765;28;20116;-84
2021/12/03 07:05:49;;;;;;;1.98;1.98;;;0.20;99.90;;;;;;5056267;28;20068;-85
2021/12/03 07:08:16;;;;;;;2.03;1.92;;;0.20;99.90;;;;;;5056166;28;20064;-84
2021/12/03 07:10:42;;;;;;;1.05;1.05;;;0.20;99.90;;;;;;5072787;28;20045;-84
2021/12/03 07:13:07;;;;;;;1.65;1.60;;;0.20;99.90;;;;;;5072522;28;20170;-84
2021/12/03 07:15:34;;;;;;;2.88;2.17;;;0.30;99.90;;;;;;5056159;28;20041;-85
2021/12/03 07:17:59;;;;;;;0.60;0.60;;;0.20;99.90;;;;;;5072874;28;20055;-84
2021/12/03 07:20:26;;;;;;;7.53;3.42;;;0.30;99.90;;;;;;5056280;28;20045;-84
2021/12/03 07:22:52;;;;;;;5.22;2.95;;;0.40;99.90;;;;;;5072538;28;20084;-85
2021/12/03 07:25:18;;;;;;;3.20;2.55;;;0.40;99.90;;;;;;5072709;28;20527;-84
2021/12/03 07:27:44;;;;;;;2.72;1.80;;;0.40;99.90;;;;;;5074013;28;20052;-84
2021/12/03 07:30:12;;;;;;;1.38;1.10;;;0.50;99.90;;;;;;5072675;28;20044;-84
2021/12/03 07:32:38;;;;;;;3.15;2.95;;;0.50;99.90;;;;;;5106455;28;20080;-83
2021/12/03 07:35:05;;;;;;;1.60;1.50;;;0.60;99.90;;;;;;5072329;28;20052;-84
2021/12/03 07:37:31;;;;;;;2.65;1.60;;;0.70;99.90;;;;;;5072053;28;20044;-84
2021/12/03 07:40:00;;;;;;;1.50;1.50;;;0.70;99.90;;;;;;5072067;28;20098;-84
2021/12/03 07:42:26;;;;;;;5.80;2.38;;;0.80;99.90;;;;;;5072353;28;20493;-84
2021/12/03 07:44:51;;;;;;;3.33;2.45;;;0.70;99.90;;;;;;5072132;28;20048;-84
2021/12/03 07:47:17;;;;;;;1.60;1.50;;;0.80;99.90;;;;;;5072203;28;20055;-83
2021/12/03 07:49:44;;;;;;;1.38;1.38;;;0.70;99.90;;;;;;5072001;28;20066;-84
2021/12/03 07:52:12;;;;;;;1.58;1.48;;;0.70;99.90;;;;;;5072028;28;20052;-83
2021/12/03 07:54:38;;;;;;;2.50;2.30;;;0.90;99.90;;;;;;5072027;28;20105;-84
2021/12/03 07:57:04;;;;;;;2.65;1.67;;;0.80;99.90;;;;;;5071347;28;20056;-84
2021/12/03 07:59:30;;;;;;;2.40;2.28;;;0.80;99.90;;;;;;5072002;28;20044;-83
2021/12/03 08:01:56;;;;;;;3.47;3.15;;;0.80;99.90;;;;;;5071713;28;20139;-84
2021/12/03 08:04:21;;;;;;;2.67;2.47;;;0.80;99.90;;;;;;5054819;28;20051;-84
2021/12/03 08:06:51;;;;;;;3.53;3.17;;;0.80;99.90;;;;;;5071823;28;20055;-83
2021/12/03 08:09:17;;;;;;;4.68;2.72;;;0.80;99.90;;;;;;5054920;28;20075;-83
2021/12/03 08:11:43;;;;;;;6.68;2.72;;;0.80;99.90;;;;;;5071926;28;20053;-83
2021/12/03 08:14:09;;;;;;;7.40;4.28;;;0.80;99.90;;;;;;5071828;28;20465;-83
2021/12/03 08:16:35;;;;;;;4.65;1.88;;;0.80;99.90;;;;;;5071691;28;20055;-83
2021/12/03 08:19:00;;;;;;;1.25;1.13;;;0.80;99.90;;;;;;5071438;28;20486;-83
2021/12/03 08:21:26;;;;;;;9.10;3.47;;;0.90;99.90;;;;;;5071631;28;20040;-83
2021/12/03 08:23:52;;;;;;;5.60;2.75;;;0.90;99.90;;;;;;5071322;28;20048;-83
2021/12/03 08:26:17;;;;;;;12.20;6.13;;;0.90;99.90;;;;;;5072724;28;20048;-83
2021/12/03 08:28:43;;;;;;;9.10;5.57;;;0.90;99.90;;;;;;5072629;28;20052;-83
2021/12/03 08:31:14;;;;;;;8.00;4.70;;;0.90;99.90;;;;;;5071479;28;20105;-83
2021/12/03 08:33:40;;;;;;;2.22;2.13;;;1.00;99.90;;;;;;5071766;28;20094;-84
2021/12/03 08:36:06;;;;;;;4.95;2.83;;;1.00;99.90;;;;;;5071374;28;20077;-83
2021/12/03 08:38:31;;;;;;;11.63;4.00;;;1.10;99.90;;;;;;5071256;28;20156;-84
2021/12/03 08:40:57;;;;;;;5.85;1.92;;;1.10;99.90;;;;;;5071617;28;20044;-84
2021/12/03 08:43:23;;;;;;;3.80;2.85;;;1.10;99.90;;;;;;5071938;28;20094;-85
2021/12/03 08:45:53;;;;;;;6.57;4.13;;;1.10;99.90;;;;;;5071521;28;20470;-84
2021/12/03 08:48:21;;;;;;;9.55;5.10;;;1.20;99.90;;;;;;5071699;28;20556;-84
2021/12/03 08:51:03;;;;;;;2.58;2.40;;;1.20;99.90;;;;;;5071358;28;20047;-83
2021/12/03 08:56:09;;;;;;;3.03;2.08;;;1.30;99.90;;;;;;5071309;28;20041;-84
2021/12/03 08:58:35;;;;;;;5.75;5.15;;;1.30;99.90;;;;;;5071104;28;20112;-84
2021/12/03 09:01:01;;;;;;;2.70;2.08;;;1.40;99.90;;;;;;5071156;28;20067;-85
2021/12/03 09:03:26;;;;;;;2.80;2.35;;;1.30;99.90;;;;;;5071041;28;20095;-84
2021/12/03 09:05:52;;;;;;;6.00;2.00;;;1.40;99.90;;;;;;5072573;28;20510;-85
2021/12/03 09:08:18;;;;;;;1.92;1.83;;;1.40;99.90;;;;;;5074939;28;20591;-84
2021/12/03 09:10:44;;;;;;;7.13;3.95;;;1.40;99.90;;;;;;5076278;28;20055;-85
2021/12/03 09:13:10;;;;;;;6.43;3.33;;;1.40;99.90;;;;;;5076372;28;20075;-85
2021/12/03 09:15:40;;;;;;;4.18;3.95;;;1.40;99.90;;;;;;5058463;28;20033;-85
2021/12/03 09:18:22;;;;;;;4.55;4.22;;;1.50;99.90;;;;;;5076403;28;20048;-84
2021/12/03 09:23:29;;;;;;;12.70;3.33;;;1.60;99.90;;;;;;5075321;28;20064;-85
2021/12/03 09:28:59;;;;;;;4.78;3.00;;;1.60;99.90;;;;;;5053669;28;20049;-84
2021/12/03 09:31:25;;;;;;;11.52;3.78;;;1.70;99.90;;;;;;5037144;28;20041;-85
2021/12/03 09:33:51;;;;;;;4.65;4.22;;;1.70;99.90;;;;;;5037263;28;20057;-85
2021/12/03 09:36:17;;;;;;;2.55;2.45;;;1.70;99.90;;;;;;5037029;28;20044;-86
2021/12/03 09:38:43;;;;;;;3.80;3.38;;;1.70;99.90;;;;;;5036992;28;20107;-85
2021/12/03 09:41:15;;;;;;;8.05;3.78;;;1.80;99.90;;;;;;5037130;28;20052;-86
2021/12/03 09:43:42;;;;;;;;;;;1.80;99.90;;;;;;5037759;28;20418;-85
2021/12/03 09:46:16;;;;;;;0.95;0.90;;;1.80;99.90;;;;;;5036538;28;19929;-84
2021/12/03 09:51:08;;;;;;;2.42;2.33;;;1.90;99.90;;;;;;5036404;28;20041;-84
2021/12/03 09:54:18;;;;;;;20.35;5.68;;;1.90;99.90;;;;;;5036637;28;20186;-84
2021/12/03 09:56:28;;;;;;;2.72;2.50;;;1.90;99.90;;;;;;5035592;28;20084;-85
2021/12/03 10:01:30;;;;;;;5.85;3.28;;;2.00;99.90;;;;;;5036912;28;20053;-86
2021/12/03 10:15:33;;;;;;;9.40;3.53;;;2.10;99.90;;;;;;5075588;28;20047;-83
2021/12/03 10:18:23;;;;;;;25.30;4.15;;;2.20;99.90;;;;;;5056743;28;20044;-85
2021/12/03 10:32:27;;;;;;;7.88;5.10;;;2.50;99.90;;;;;;5052822;28;20045;-85
2021/12/03 10:54:18;;;;;;;6.13;5.35;;;2.60;99.90;;;;;;5035434;28;20087;-84
2021/12/03 11:04:55;;;;;;;6.82;2.35;;;2.60;99.90;;;;;;5035838;28;20056;-84
2021/12/03 11:35:42;;;;;;;1.20;1.08;;;2.80;99.90;;;;;;5034580;28;20048;-84
2021/12/03 11:38:24;;;;;;;0.30;0.30;;;2.80;99.90;;;;;;5034528;28;20052;-84
2021/12/03 11:55:56;;;;;;;4.22;3.85;;;2.70;99.90;;;;;;5073588;28;20106;-85
2021/12/03 12:05:23;;;;;;;7.18;1.40;;;2.70;99.90;;;;;;5072011;28;20080;-84
2021/12/03 12:15:43;;;;;;;4.57;1.48;;;2.70;99.90;;;;;;5050582;28;20052;-85
2021/12/03 13:21:08;;;;;;;2.45;2.35;;;2.60;99.90;;;;;;5054283;28;20127;-84
2021/12/03 13:45:52;;;;;;;1.02;1.02;;;2.70;99.90;;;;;;5053858;28;20463;-87
2021/12/03 14:01:01;;;;;;;2.72;2.63;;;2.80;99.90;;;;;;5053525;28;20052;-86
2021/12/03 14:38:22;;;;;;;2.78;1.52;;;2.80;99.90;;;;;;5071872;28;20087;-82
2021/12/03 14:41:08;;;;;;;2.35;1.48;;;2.90;99.90;;;;;;5072217;28;20515;-83
2021/12/03 14:43:45;;;;;;;3.22;2.47;;;2.90;99.90;;;;;;5072213;28;20155;-80
2021/12/03 14:56:21;;;;;;;3.30;2.50;;;3.00;99.90;;;;;;5071926;28;20469;-80
2021/12/03 14:59:12;;;;;;;5.18;3.53;;;3.00;99.90;;;;;;5071814;28;20041;-80
2021/12/03 15:02:09;;;;;;;3.70;3.40;;;3.10;99.90;;;;;;5055264;28;20056;-80
2021/12/03 15:07:32;;;;;;;10.50;4.97;;;3.10;99.90;;;;;;5002292;28;20054;-81
2021/12/03 15:09:59;;;;;;;1.77;1.63;;;3.10;99.90;;;;;;4995824;28;20050;-83
2021/12/03 15:25:56;;;;;;;2.00;1.90;;;3.20;99.90;;;;;;5011564;28;20062;-88
2021/12/03 15:28:41;;;;;;;2.17;1.42;;;3.20;99.90;;;;;;5011344;28;20155;-83
2021/12/03 15:31:15;;;;;;;1.00;1.00;;;3.30;99.90;;;;;;4995004;28;20065;-82
2021/12/03 15:34:06;;;;;;;1.50;0.68;;;3.30;99.90;;;;;;4995533;28;20049;-84
2021/12/03 15:36:56;;;;;;;2.78;1.33;;;3.40;99.90;;;;;;5011723;28;20049;-83
2021/12/03 15:39:40;;;;;;;0.93;0.90;;;3.40;99.90;;;;;;5011478;28;20050;-83
2021/12/03 16:03:54;;;;;;;0.47;0.47;;;3.50;99.90;;;;;;5072887;28;20190;-83
2021/12/03 16:11:57;;;;;;;2.25;2.15;;;3.50;99.90;;;;;;5070848;28;20049;-82
2021/12/03 16:14:57;;;;;;;1.10;1.10;;;3.50;99.90;;;;;;5070788;28;20053;-82
2021/12/03 16:46:14;;;;;;;1.95;1.92;;;3.50;99.90;;;;;;5070125;28;20151;-81
2021/12/03 16:53:46;;;;;;;1.75;1.02;;;3.60;99.90;;;;;;5052445;28;20049;-81
2021/12/03 16:56:19;;;;;;;1.63;1.38;;;3.60;99.90;;;;;;5052241;28;20071;-81
2021/12/03 16:58:45;;;;;;;1.08;1.02;;;3.60;99.90;;;;;;5084675;28;20053;-81
2021/12/03 17:56:32;;;;;;;0.95;0.95;;;3.60;99.90;;;;;;5075415;28;20056;-83
2021/12/03 17:59:14;;;;;;;1.58;1.38;;;3.60;99.90;;;;;;5073881;28;20443;-82
2021/12/03 18:01:51;;;;;;;3.50;3.03;;;3.70;99.90;;;;;;5075357;28;20044;-83
2021/12/03 18:04:34;;;;;;;2.63;2.53;;;3.70;99.90;;;;;;5074377;28;20515;-82
2021/12/03 18:14:10;;;;;;;1.67;1.58;;;3.70;99.90;;;;;;5072708;28;20444;-82
2021/12/03 18:17:01;;;;;;;2.72;2.63;;;3.70;99.90;;;;;;5055801;28;20052;-82
2021/12/03 18:44:38;;;;;;;11.20;3.80;;;3.80;99.90;;;;;;4976425;28;20049;-84
2021/12/03 18:55:29;;;;;;;10.60;4.35;;;3.80;99.90;;;;;;4973342;28;20050;-82
2021/12/03 18:57:59;;;;;;;3.70;2.67;;;3.80;99.90;;;;;;5000903;28;20067;-82
2021/12/03 19:00:27;;;;;;;1.98;1.85;;;3.90;99.90;;;;;;5053890;28;20059;-81
2021/12/03 19:02:55;;;;;;;3.00;2.80;;;3.90;99.90;;;;;;5054748;28;20041;-85
2021/12/03 19:05:32;;;;;;;6.03;4.18;;;3.90;99.90;;;;;;5073356;28;20127;-79
2021/12/03 19:08:05;;;;;;;4.93;4.43;;;3.90;99.90;;;;;;5073624;28;20543;-82
2021/12/03 19:10:33;;;;;;;6.13;2.40;;;3.90;99.90;;;;;;5072418;28;20087;-81
2021/12/03 19:13:03;;;;;;;4.95;3.65;;;3.90;99.90;;;;;;5072459;28;20505;-82
2021/12/03 19:15:30;;;;;;;6.20;1.98;;;3.90;99.90;;;;;;5073769;28;20040;-83
2021/12/03 19:18:00;;;;;;;9.35;4.32;;;3.90;99.90;;;;;;5073917;28;20033;-79
2021/12/03 19:20:27;;;;;;;3.58;3.30;;;3.90;99.90;;;;;;5072184;28;20051;-81
2021/12/03 19:22:53;;;;;;;4.57;4.28;;;3.90;99.90;;;;;;5072157;28;20123;-79
2021/12/03 19:25:19;;;;;;;7.57;4.43;;;3.90;99.90;;;;;;5073743;28;20178;-84
2021/12/03 19:27:44;;;;;;;5.85;4.00;;;3.90;99.90;;;;;;5072161;28;20170;-80
2021/12/03 19:30:11;;;;;;;2.45;1.80;;;4.00;99.90;;;;;;5072284;28;20067;-83
2021/12/03 19:32:37;;;;;;;1.48;1.38;;;3.90;99.90;;;;;;5072037;28;20059;-82
2021/12/03 19:35:04;;;;;;;4.35;2.20;;;3.90;99.90;;;;;;5071827;28;20050;-82
2021/12/03 19:37:31;;;;;;;3.13;2.88;;;4.00;99.90;;;;;;5071791;28;20087;-83
2021/12/03 19:39:59;;;;;;;8.98;5.95;;;4.00;99.90;;;;;;5072015;28;20041;-83
2021/12/03 19:45:18;;;;;;;2.78;2.67;;;4.00;99.90;;;;;;5054409;28;20455;-81
2021/12/03 19:48:03;;;;;;;3.08;2.88;;;4.00;99.90;;;;;;5070844;28;20645;-86
2021/12/03 19:50:43;;;;;;;7.45;3.10;;;4.00;99.90;;;;;;5070535;28;20086;-81
2021/12/03 19:53:13;;;;;;;3.53;3.22;;;4.00;99.90;;;;;;5053600;28;20087;-80
2021/12/03 19:55:40;;;;;;;11.65;3.83;;;4.10;99.90;;;;;;5070736;28;20493;-81
2021/12/03 19:58:09;;;;;;;7.32;3.97;;;4.00;99.90;;;;;;5070574;28;20044;-80
2021/12/03 20:00:38;;;;;;;1.85;1.60;;;4.10;99.90;;;;;;5054059;28;20603;-82
2021/12/03 20:03:04;;;;;;;2.08;2.00;;;4.10;99.90;;;;;;5070354;28;20048;-81
2021/12/03 20:05:30;;;;;;;5.57;1.60;;;4.10;99.90;;;;;;5070719;28;20578;-83
2021/12/03 20:07:59;;;;;;;4.80;2.10;;;4.00;99.90;;;;;;5053813;28;20044;-81
2021/12/03 20:10:26;;;;;;;1.35;1.25;;;4.00;99.90;;;;;;5053689;28;20057;-81
2021/12/03 20:12:52;;;;;;;3.33;3.13;;;4.00;99.90;;;;;;5054061;28;20052;-81
2021/12/03 20:15:45;;;;;;;7.85;1.92;;;4.00;99.90;;;;;;5070394;28;20070;-81
2021/12/03 20:18:24;;;;;;;4.15;3.85;;;4.00;99.90;;;;;;5070172;28;20052;-79
2021/12/03 20:20:50;;;;;;;10.27;3.55;;;4.00;99.90;;;;;;5053796;28;20056;-81